Terminal Aerodrome Forecast
Issued by NWS

Home | Current Version | Previous Version | Text Only | Print | Product List | Glossary On
Versions: 1 2 3 4 5 6 7 8 9 10 11 12 13 14 15
000
FTUS46 KSEW 040537
TAFHQM
TAF
KHQM 040537Z 0406/0506 00000KT P6SM SKC
     FM040900 05004KT P6SM SCT020 BKN050
     FM041800 25008KT P6SM BKN080
     FM042300 25008KT P6SM SCT100 BKN200=

USA.gov is the U.S. government's official web portal to all federal, state and local government web resources and services.